createdAt,value
2022-12-19T00:01:50.419Z,52.40
2022-12-19T00:06:53.611Z,50.80
2022-12-19T00:11:56.783Z,55.10
2022-12-19T00:16:59.836Z,60.80
2022-12-19T00:22:06.024Z,73.20
2022-12-19T00:27:11.436Z,66.10
2022-12-19T00:32:14.632Z,44.60
2022-12-19T00:37:19.885Z,52.70
2022-12-19T00:42:23.093Z,52.80
2022-12-19T00:47:26.203Z,51.00
2022-12-19T00:52:29.595Z,54.20
2022-12-19T00:57:35.381Z,46.10
2022-12-19T01:02:38.668Z,38.90
2022-12-19T01:07:42.413Z,42.50
2022-12-19T01:12:48.598Z,46.30
2022-12-19T01:17:51.911Z,29.20
2022-12-19T01:22:55.213Z,32.10
2022-12-19T01:27:58.343Z,21.40
2022-12-19T01:33:01.836Z,52.50
2022-12-19T01:38:08.025Z,56.60
2022-12-19T01:43:15.931Z,42.10
2022-12-19T01:48:33.177Z,43.10
2022-12-19T01:53:48.732Z,33.10
2022-12-19T01:59:05.114Z,37.60
2022-12-19T02:04:11.340Z,39.20
2022-12-19T02:09:15.055Z,36.60
2022-12-19T02:14:18.898Z,51.70
2022-12-19T02:19:53.531Z,50.00
2022-12-19T02:25:17.749Z,41.60
2022-12-19T02:31:16.527Z,30.10
2022-12-19T02:36:48.944Z,33.60
2022-12-19T02:41:58.716Z,27.70
2022-12-19T02:52:34.221Z,9.70
2022-12-19T02:58:08.348Z,43.20
2022-12-19T03:03:35.593Z,37.60
2022-12-19T03:09:08.529Z,41.00
2022-12-19T03:14:19.996Z,23.00
2022-12-19T03:19:24.507Z,35.50
2022-12-19T03:24:28.845Z,27.40
2022-12-19T03:29:45.854Z,11.20
2022-12-19T03:34:59.808Z,24.50
2022-12-19T03:40:15.520Z,15.40
2022-12-19T03:45:54.746Z,15.30
2022-12-19T03:51:00.742Z,29.80
2022-12-19T03:56:17.777Z,27.30
2022-12-19T04:01:22.449Z,31.70
2022-12-19T04:06:31.944Z,37.10
2022-12-19T04:11:42.196Z,41.20
2022-12-19T04:17:18.328Z,20.00
2022-12-19T04:22:50.015Z,40.30
2022-12-19T04:28:02.435Z,34.00
2022-12-19T04:33:06.468Z,22.90
2022-12-19T04:38:11.411Z,26.80
2022-12-19T04:43:14.629Z,27.40
2022-12-19T04:48:17.828Z,25.00
2022-12-19T04:53:21.030Z,20.70
2022-12-19T04:58:24.139Z,23.10
2022-12-19T05:03:27.434Z,33.60
2022-12-19T05:08:30.858Z,9.10
2022-12-19T05:13:34.183Z,25.90
2022-12-19T05:18:39.282Z,21.60
2022-12-19T05:23:42.744Z,26.80
2022-12-19T05:28:45.876Z,30.20
2022-12-19T05:33:49.561Z,37.50
2022-12-19T05:38:52.873Z,22.40
2022-12-19T05:43:56.901Z,27.00
2022-12-19T05:49:00.024Z,26.80
2022-12-19T05:54:03.418Z,20.90
2022-12-19T05:59:06.645Z,24.40
2022-12-19T06:04:09.842Z,22.70
2022-12-19T06:09:12.944Z,33.30
2022-12-19T06:14:16.404Z,24.00
2022-12-19T06:19:21.887Z,12.20
2022-12-19T06:24:26.205Z,14.30
2022-12-19T06:29:29.269Z,25.20
2022-12-19T06:35:02.689Z,20.00
2022-12-19T06:39:56.463Z,24.10
2022-12-19T06:44:59.783Z,9.40
2022-12-19T06:50:03.285Z,39.20
2022-12-19T06:55:07.606Z,12.60
2022-12-19T07:00:15.450Z,14.90
2022-12-19T07:05:19.366Z,18.80
2022-12-19T07:10:22.584Z,12.10
2022-12-19T07:15:26.620Z,16.40
2022-12-19T07:20:32.022Z,21.20
2022-12-19T07:25:35.372Z,6.30
2022-12-19T07:30:38.679Z,14.80
2022-12-19T07:35:42.115Z,25.40
2022-12-19T07:40:45.512Z,21.10
2022-12-19T07:45:56.104Z,13.20
2022-12-19T07:50:59.291Z,20.10
2022-12-19T07:56:02.419Z,9.30
2022-12-19T08:01:06.685Z,12.90
2022-12-19T08:06:11.491Z,20.60
2022-12-19T08:11:27.638Z,16.70
2022-12-19T08:16:31.579Z,23.20
2022-12-19T08:21:34.843Z,30.90
2022-12-19T08:26:41.824Z,24.00
2022-12-19T08:31:48.211Z,19.30
2022-12-19T08:36:51.334Z,30.40
2022-12-19T08:41:54.934Z,27.90
2022-12-19T08:46:58.293Z,29.10
2022-12-19T08:52:01.662Z,28.70
2022-12-19T08:57:05.078Z,21.80
2022-12-19T09:02:10.959Z,13.50
2022-12-19T09:07:15.389Z,26.00
2022-12-19T09:12:19.953Z,19.60
2022-12-19T09:17:23.130Z,34.50
2022-12-19T09:22:27.778Z,28.10
2022-12-19T09:27:47.388Z,9.70
2022-12-19T09:32:56.005Z,28.60
2022-12-19T09:38:00.560Z,31.40
2022-12-19T09:43:21.294Z,11.20
2022-12-19T09:48:25.079Z,14.90
2022-12-19T09:53:38.455Z,26.30
2022-12-19T09:58:49.743Z,30.70
2022-12-19T10:04:19.573Z,17.60
2022-12-19T10:11:36.753Z,19.40
2022-12-19T10:15:43.354Z,29.30
2022-12-19T10:22:07.618Z,22.50
2022-12-19T10:27:04.532Z,23.50
2022-12-19T10:32:57.545Z,17.10
2022-12-19T10:38:52.017Z,24.60
2022-12-19T10:44:09.716Z,12.60
2022-12-19T10:49:20.082Z,21.50
2022-12-19T10:54:30.727Z,28.30
2022-12-19T10:59:36.427Z,26.10
2022-12-19T11:04:40.043Z,13.40
2022-12-19T11:09:50.621Z,18.20
2022-12-19T11:19:06.832Z,20.30
2022-12-19T11:29:39.999Z,23.10
2022-12-19T11:29:45.131Z,24.70
2022-12-19T11:37:35.966Z,15.70
2022-12-19T11:43:18.180Z,29.80
2022-12-19T11:48:30.916Z,28.50
2022-12-19T11:54:04.767Z,20.70
2022-12-19T11:59:36.686Z,23.60
2022-12-19T12:04:53.683Z,45.00
2022-12-19T12:15:44.839Z,17.90
2022-12-19T12:27:14.370Z,18.60
2022-12-19T12:31:18.864Z,20.40
2022-12-19T12:31:42.014Z,20.80
2022-12-19T12:35:40.507Z,22.90
2022-12-19T12:40:06.296Z,31.60
2022-12-19T12:45:31.690Z,20.10
2022-12-19T12:50:36.676Z,40.60
2022-12-19T12:55:42.151Z,32.60
2022-12-19T13:01:30.778Z,24.00
2022-12-19T13:06:39.801Z,33.50
2022-12-19T13:12:09.481Z,27.90
2022-12-19T13:17:32.853Z,15.80
2022-12-19T13:22:35.996Z,5.10
2022-12-19T13:27:41.123Z,30.10
2022-12-19T13:32:44.258Z,23.60
2022-12-19T13:40:01.729Z,32.70
2022-12-19T13:43:48.408Z,17.00
2022-12-19T13:48:58.852Z,19.90
2022-12-19T13:54:01.978Z,34.00
2022-12-19T13:59:05.918Z,43.20
2022-12-19T14:04:27.482Z,27.70
2022-12-19T14:11:28.833Z,29.30
2022-12-19T14:15:14.754Z,26.50
2022-12-19T14:22:01.464Z,19.00
2022-12-19T14:28:25.853Z,26.90
2022-12-19T14:31:19.759Z,24.00
2022-12-19T14:36:29.220Z,41.40
2022-12-19T14:42:04.866Z,32.40
2022-12-19T14:54:07.203Z,34.70
2022-12-19T14:54:27.815Z,16.10
2022-12-19T14:58:54.111Z,28.50
2022-12-19T15:04:50.972Z,35.30
2022-12-19T15:11:00.652Z,50.10
2022-12-19T15:15:36.321Z,26.10
2022-12-19T15:20:39.540Z,25.30
2022-12-19T15:26:03.281Z,20.50
2022-12-19T15:31:21.941Z,16.30
2022-12-19T15:36:25.204Z,24.80
2022-12-19T15:41:28.449Z,23.00
2022-12-19T15:46:32.858Z,28.20
2022-12-19T15:51:36.072Z,31.60
2022-12-19T15:56:46.839Z,24.60
2022-12-19T16:01:50.381Z,28.10
2022-12-19T16:06:53.680Z,29.20
2022-12-19T16:11:58.414Z,16.50
2022-12-19T16:17:01.643Z,35.30
2022-12-19T16:22:19.333Z,31.00
2022-12-19T16:27:30.849Z,21.30
2022-12-19T16:32:34.228Z,30.50
2022-12-19T16:37:37.500Z,36.70
2022-12-19T16:42:44.189Z,16.80
2022-12-19T16:47:48.578Z,35.60
2022-12-19T16:52:53.310Z,55.20
2022-12-19T16:57:56.988Z,40.50
2022-12-19T17:03:18.971Z,32.40
2022-12-19T17:08:22.987Z,41.00
2022-12-19T17:13:26.988Z,24.30
2022-12-19T17:18:41.846Z,25.00
2022-12-19T17:23:46.513Z,35.00
2022-12-19T17:28:49.697Z,39.70
2022-12-19T17:33:56.348Z,23.10
2022-12-19T17:39:00.464Z,33.90
2022-12-19T17:44:03.673Z,26.00
2022-12-19T17:49:13.116Z,25.10
2022-12-19T17:54:16.641Z,45.90
2022-12-19T17:59:21.229Z,32.00
2022-12-19T18:04:26.478Z,35.50
2022-12-19T18:09:29.733Z,25.30
2022-12-19T18:14:33.040Z,30.10
2022-12-19T18:19:36.384Z,37.60
2022-12-19T18:24:40.379Z,28.80
2022-12-19T18:29:43.503Z,24.40
2022-12-19T18:34:46.801Z,47.10
2022-12-19T18:39:49.934Z,48.60
2022-12-19T18:44:53.049Z,35.70
2022-12-19T18:49:56.640Z,25.10
2022-12-19T18:54:59.949Z,27.90
2022-12-19T19:00:04.386Z,34.50
2022-12-19T19:05:19.052Z,31.00
2022-12-19T19:10:29.973Z,48.00
2022-12-19T19:15:36.578Z,39.50
2022-12-19T19:20:43.407Z,51.20
2022-12-19T19:25:46.536Z,130.90
2022-12-19T19:30:52.558Z,150.90
2022-12-19T19:36:09.369Z,126.40
2022-12-19T19:41:14.901Z,50.30
2022-12-19T19:46:18.212Z,60.10
2022-12-19T19:51:22.021Z,77.40
2022-12-19T19:56:25.135Z,48.80
2022-12-19T20:01:28.810Z,44.60
2022-12-19T20:06:32.807Z,44.80
2022-12-19T20:11:36.137Z,63.40
2022-12-19T20:16:39.825Z,98.60
2022-12-19T20:21:44.057Z,101.70
2022-12-19T20:26:47.255Z,54.80
2022-12-19T20:31:50.478Z,55.10
2022-12-19T20:36:53.772Z,44.70
2022-12-19T20:41:57.002Z,46.00
2022-12-19T20:47:00.539Z,33.90
2022-12-19T20:52:04.017Z,51.70
2022-12-19T20:57:07.218Z,27.40
2022-12-19T21:02:12.006Z,42.50
2022-12-19T21:07:15.275Z,34.90
2022-12-19T21:12:18.487Z,110.70
2022-12-19T21:17:21.798Z,138.20
2022-12-19T21:22:25.723Z,84.60
2022-12-19T21:27:28.857Z,45.60
2022-12-19T21:32:32.037Z,37.70
2022-12-19T21:37:39.900Z,31.70
2022-12-19T21:42:47.974Z,36.30
2022-12-19T21:47:51.108Z,39.60
2022-12-19T21:52:55.958Z,32.90
2022-12-19T21:58:00.393Z,37.20
2022-12-19T22:03:18.829Z,92.90
2022-12-19T22:13:26.288Z,47.70
2022-12-19T22:18:29.586Z,36.60
2022-12-19T22:23:33.713Z,25.50
2022-12-19T22:28:42.541Z,34.90
2022-12-19T22:33:47.279Z,41.80
2022-12-19T22:38:51.229Z,77.10
2022-12-19T22:43:55.803Z,112.40
2022-12-19T22:49:02.957Z,99.80
2022-12-19T22:54:07.288Z,48.70
2022-12-19T22:59:12.905Z,32.40
2022-12-19T23:04:17.901Z,38.00
2022-12-19T23:09:21.145Z,33.90
2022-12-19T23:14:24.232Z,25.40
2022-12-19T23:27:36.020Z,81.60
2022-12-19T23:32:39.757Z,48.80
2022-12-19T23:37:45.403Z,24.60
2022-12-19T23:42:48.589Z,26.20
2022-12-19T23:47:51.808Z,17.10
2022-12-19T23:52:55.213Z,31.60
2022-12-19T23:57:58.432Z,32.40
